Winfield, Georgia
Current Conditions -  °F | °C
As of 1:35 AM on Monday 26 Jan 2015 (Local Time) from KHQU Reporting Station
Overcast Overcast  
Wind Chill: 51°   Ceiling: 10000
Heat Index: 51°   Visibility: 10mi
Dew Point: 43°   Wind: 5mph
Humidity: 74%   Direction: 220°SW
Pressure: 29.77"   Gusts: NA
Location:  33.5142°N, 82.516°W
Report Text: KHQU 260635Z AUTO 22004KT 10SM SCT080 BKN100 OVC120 11/06 A2977 RMK AO1 T01050060
Loading
Personal Weather Stations






























Interactive Weather Map New forecast layout! Learn more

10-Day Weather Forecast

Advertisements
Track Severe Weather on mobile